Time;durP1;ratioP1;P1;durP2;ratioP2;P2;SDS_P1;SDS_P2;PMS_P1;PMS_P2;Temp;Humidity;BMP_temperature;BMP_pressure;BME280_temperature;BME280_humidity;BME280_pressure;Samples;Min_cycle;Max_cycle;Signal;HPM_P1;HPM_P2
2022/07/19 00:00:34;;;;;;;4.00;3.20;;;;;;;;;;10434247;28;20072;-80
2022/07/19 00:05:36;;;;;;;4.70;3.30;;;;;;;;;;10445659;28;20560;-81
2022/07/19 00:10:37;;;;;;;3.37;3.07;;;;;;;;;;10427694;28;20127;-80
2022/07/19 00:15:37;;;;;;;3.53;3.20;;;;;;;;;;10439009;28;20048;-82
2022/07/19 00:20:39;;;;;;;3.67;3.08;;;;;;;;;;10453332;28;20284;-83
2022/07/19 00:25:39;;;;;;;3.42;3.13;;;;;;;;;;10464606;28;20048;-80
2022/07/19 00:30:39;;;;;;;3.27;2.97;;;;;;;;;;10456202;28;20049;-81
2022/07/19 00:35:40;;;;;;;3.33;3.03;;;;;;;;;;10462431;28;20054;-80
2022/07/19 00:40:41;;;;;;;3.72;3.00;;;;;;;;;;10431604;28;20108;-81
2022/07/19 00:45:41;;;;;;;4.57;3.20;;;;;;;;;;10440138;28;20049;-81
2022/07/19 00:50:45;;;;;;;3.40;3.10;;;;;;;;;;10395813;28;20145;-83
2022/07/19 00:55:45;;;;;;;4.18;3.45;;;;;;;;;;10450488;28;20065;-83
2022/07/19 01:00:46;;;;;;;3.80;3.50;;;;;;;;;;10431219;28;20041;-81
2022/07/19 01:05:48;;;;;;;3.60;3.30;;;;;;;;;;10434137;28;20052;-83
2022/07/19 01:10:50;;;;;;;3.88;3.47;;;;;;;;;;10445120;28;20284;-82
2022/07/19 01:15:52;;;;;;;4.03;3.15;;;;;;;;;;10461753;28;20104;-82
2022/07/19 01:20:54;;;;;;;3.47;3.17;;;;;;;;;;10417056;28;20417;-83
2022/07/19 01:25:54;;;;;;;5.53;3.17;;;;;;;;;;10420387;28;20143;-83
2022/07/19 01:30:56;;;;;;;4.10;3.80;;;;;;;;;;10444475;28;20048;-84
2022/07/19 01:36:01;;;;;;;3.75;3.42;;;;;;;;;;10431326;28;20606;-83
2022/07/19 01:41:01;;;;;;;4.10;3.63;;;;;;;;;;10464328;28;20059;-83
2022/07/19 01:46:02;;;;;;;3.53;3.22;;;;;;;;;;10426693;28;20384;-80
2022/07/19 01:51:04;;;;;;;3.70;3.40;;;;;;;;;;10421143;28;20084;-81
2022/07/19 01:56:07;;;;;;;4.00;3.53;;;;;;;;;;10372915;28;20211;-81
2022/07/19 02:01:09;;;;;;;3.30;3.00;;;;;;;;;;10441996;28;20168;-83
2022/07/19 02:06:09;;;;;;;3.80;3.37;;;;;;;;;;10437841;28;20068;-82
2022/07/19 02:16:30;;;;;;;4.38;3.97;;;;;;;;;;10435415;28;20336;-80
2022/07/19 02:21:31;;;;;;;4.10;3.70;;;;;;;;;;10423866;28;20042;-80
2022/07/19 02:26:32;;;;;;;3.90;3.50;;;;;;;;;;10429539;28;20059;-81
2022/07/19 02:31:33;;;;;;;6.13;4.00;;;;;;;;;;10432737;28;20033;-81
2022/07/19 02:36:34;;;;;;;4.38;3.97;;;;;;;;;;10426403;28;20069;-83
2022/07/19 02:41:34;;;;;;;4.40;3.30;;;;;;;;;;10442782;28;20076;-80
2022/07/19 02:46:34;;;;;;;3.57;3.27;;;;;;;;;;10447339;28;20377;-80
2022/07/19 02:51:35;;;;;;;3.77;3.43;;;;;;;;;;10428955;28;20393;-80
2022/07/19 02:56:37;;;;;;;4.82;3.88;;;;;;;;;;10421029;28;20306;-80
2022/07/19 03:01:37;;;;;;;4.13;3.72;;;;;;;;;;10398213;28;20055;-80
2022/07/19 03:06:38;;;;;;;4.67;3.47;;;;;;;;;;10414931;28;20043;-80
2022/07/19 03:11:39;;;;;;;3.78;3.40;;;;;;;;;;10408067;28;20279;-80
2022/07/19 03:16:41;;;;;;;5.33;3.30;;;;;;;;;;10429493;28;20064;-79
2022/07/19 03:21:41;;;;;;;4.10;3.65;;;;;;;;;;10443623;28;20053;-79
2022/07/19 03:26:42;;;;;;;4.57;3.88;;;;;;;;;;10453877;28;20049;-83
2022/07/19 03:31:44;;;;;;;4.38;3.97;;;;;;;;;;10446826;28;20042;-80
2022/07/19 03:36:45;;;;;;;4.00;3.60;;;;;;;;;;10420996;28;20067;-79
2022/07/19 03:41:45;;;;;;;4.50;3.93;;;;;;;;;;10404222;28;20109;-80
2022/07/19 03:46:45;;;;;;;4.50;3.60;;;;;;;;;;10409076;28;20381;-80
2022/07/19 03:51:46;;;;;;;4.87;4.37;;;;;;;;;;10424928;28;20105;-81
2022/07/19 03:56:48;;;;;;;4.57;4.18;;;;;;;;;;10433546;28;20296;-80
2022/07/19 04:01:49;;;;;;;4.75;4.07;;;;;;;;;;10474752;28;20025;-84
2022/07/19 04:06:49;;;;;;;4.68;4.25;;;;;;;;;;10468644;28;20055;-83
2022/07/19 04:12:00;;;;;;;4.22;3.65;;;;;;;;;;10471163;28;20437;-84
2022/07/19 04:17:04;;;;;;;4.80;4.40;;;;;;;;;;10475232;28;20056;-84
2022/07/19 04:22:05;;;;;;;4.97;4.43;;;;;;;;;;10493744;28;20052;-80
2022/07/19 04:27:06;;;;;;;6.40;4.90;;;;;;;;;;10442824;28;20058;-81
2022/07/19 04:32:06;;;;;;;5.15;4.57;;;;;;;;;;10440364;28;20374;-79
2022/07/19 04:37:07;;;;;;;6.57;5.07;;;;;;;;;;10425806;28;20087;-79
2022/07/19 04:42:07;;;;;;;4.73;4.23;;;;;;;;;;10443830;28;20049;-80
2022/07/19 04:47:09;;;;;;;5.10;4.70;;;;;;;;;;10460512;28;20102;-83
2022/07/19 04:52:09;;;;;;;19.63;16.02;;;;;;;;;;10441119;28;20105;-74
2022/07/19 04:57:09;;;;;;;8.43;6.87;;;;;;;;;;10430637;28;20075;-73
2022/07/19 05:02:10;;;;;;;5.43;4.93;;;;;;;;;;10428963;28;20053;-75
2022/07/19 05:07:10;;;;;;;4.53;3.53;;;;;;;;;;10435243;28;20052;-72
2022/07/19 05:12:10;;;;;;;3.80;3.50;;;;;;;;;;10412685;28;20301;-73
2022/07/19 05:17:11;;;;;;;4.53;4.13;;;;;;;;;;10425069;28;20037;-72
2022/07/19 05:22:11;;;;;;;6.47;4.23;;;;;;;;;;10419729;28;20053;-72
2022/07/19 05:27:12;;;;;;;3.87;3.23;;;;;;;;;;10428678;28;20304;-72
2022/07/19 05:32:12;;;;;;;5.37;3.97;;;;;;;;;;10412977;28;20276;-73
2022/07/19 05:37:12;;;;;;;3.57;3.20;;;;;;;;;;10421923;28;20187;-72
2022/07/19 05:42:13;;;;;;;10.50;5.30;;;;;;;;;;10395048;28;20046;-71
2022/07/19 05:47:13;;;;;;;7.73;5.10;;;;;;;;;;10399091;28;20409;-73
2022/07/19 05:52:14;;;;;;;7.83;4.63;;;;;;;;;;10415594;28;20556;-70
2022/07/19 05:57:14;;;;;;;4.50;4.05;;;;;;;;;;10416729;28;20477;-71
2022/07/19 06:02:16;;;;;;;5.40;4.50;;;;;;;;;;10423001;28;20114;-73
2022/07/19 06:07:16;;;;;;;4.93;3.70;;;;;;;;;;10417762;28;20442;-71
2022/07/19 06:12:17;;;;;;;3.78;3.38;;;;;;;;;;10406742;28;20048;-70
2022/07/19 06:17:17;;;;;;;6.47;4.97;;;;;;;;;;10418701;28;20068;-72
2022/07/19 06:22:17;;;;;;;13.17;11.63;;;;;;;;;;10423532;28;20272;-73
2022/07/19 06:27:18;;;;;;;9.67;7.30;;;;;;;;;;10420009;28;20325;-73
2022/07/19 06:32:18;;;;;;;6.00;4.13;;;;;;;;;;10406613;28;20275;-73
2022/07/19 06:37:18;;;;;;;4.77;3.80;;;;;;;;;;10417857;28;20381;-71
2022/07/19 06:42:19;;;;;;;4.82;3.67;;;;;;;;;;10422397;28;20359;-72
2022/07/19 06:47:20;;;;;;;4.63;3.67;;;;;;;;;;10422437;28;20045;-72
2022/07/19 06:52:20;;;;;;;7.30;3.50;;;;;;;;;;10426539;28;20056;-72
2022/07/19 06:57:21;;;;;;;16.25;12.57;;;;;;;;;;10420365;28;20049;-72
2022/07/19 07:02:21;;;;;;;5.00;3.63;;;;;;;;;;10392655;28;20048;-73
2022/07/19 07:07:21;;;;;;;4.43;3.10;;;;;;;;;;10396114;28;21142;-72
2022/07/19 07:12:24;;;;;;;3.88;2.90;;;;;;;;;;10411781;28;20049;-72
2022/07/19 07:17:25;;;;;;;4.17;3.13;;;;;;;;;;10402957;28;20080;-72
2022/07/19 07:22:25;;;;;;;4.60;3.07;;;;;;;;;;10404292;28;20049;-75
2022/07/19 07:27:26;;;;;;;3.92;2.83;;;;;;;;;;10411613;28;20306;-73
2022/07/19 07:32:26;;;;;;;3.55;2.65;;;;;;;;;;10419042;28;20129;-79
2022/07/19 07:37:27;;;;;;;5.25;3.00;;;;;;;;;;10408168;28;20045;-82
2022/07/19 07:42:29;;;;;;;2.80;2.60;;;;;;;;;;10430605;28;20045;-79
2022/07/19 07:47:30;;;;;;;3.08;2.63;;;;;;;;;;10443907;28;20055;-80
2022/07/19 07:52:30;;;;;;;3.43;2.53;;;;;;;;;;10432768;28;20172;-80
2022/07/19 07:57:30;;;;;;;3.92;2.85;;;;;;;;;;10428688;28;20045;-79
2022/07/19 08:02:33;;;;;;;2.50;2.10;;;;;;;;;;10421080;28;20060;-80
2022/07/19 08:07:33;;;;;;;2.33;2.13;;;;;;;;;;10447979;28;20045;-79
2022/07/19 08:12:34;;;;;;;2.30;2.00;;;;;;;;;;10431602;28;20053;-80
2022/07/19 08:17:35;;;;;;;2.60;2.38;;;;;;;;;;10439508;28;20053;-81
2022/07/19 08:22:36;;;;;;;3.13;2.77;;;;;;;;;;10435259;28;20045;-80
2022/07/19 08:27:36;;;;;;;2.17;1.87;;;;;;;;;;10430507;28;20076;-80
2022/07/19 08:32:40;;;;;;;4.03;2.43;;;;;;;;;;10446216;28;20601;-82
2022/07/19 08:37:41;;;;;;;3.60;2.40;;;;;;;;;;10440102;28;20052;-81
2022/07/19 08:42:45;;;;;;;3.40;2.60;;;;;;;;;;10411849;28;20057;-81
2022/07/19 08:47:48;;;;;;;4.07;2.92;;;;;;;;;;10414893;28;20505;-81
2022/07/19 08:52:51;;;;;;;3.53;3.13;;;;;;;;;;10406866;28;20055;-80
2022/07/19 08:57:57;;;;;;;4.18;2.42;;;;;;;;;;10392298;28;20123;-80
2022/07/19 09:03:00;;;;;;;4.45;2.80;;;;;;;;;;10454171;28;20060;-82
2022/07/19 09:08:15;;;;;;;5.65;3.10;;;;;;;;;;10456615;28;20041;-79
2022/07/19 09:13:16;;;;;;;3.03;2.45;;;;;;;;;;10452266;23;20053;-78
2022/07/19 09:18:24;;;;;;;7.63;2.33;;;;;;;;;;10399354;28;20119;-75
2022/07/19 09:23:25;;;;;;;5.63;2.70;;;;;;;;;;10430951;28;20049;-84
2022/07/19 09:28:27;;;;;;;3.85;2.42;;;;;;;;;;10435423;28;20490;-79
2022/07/19 09:33:27;;;;;;;;;;;;;;;;;;10416519;28;20064;-81
2022/07/19 09:38:37;;;;;;;2.65;2.42;;;;;;;;;;10446615;28;19928;-81
2022/07/19 09:43:56;;;;;;;3.13;2.30;;;;;;;;;;10455796;28;20050;-78
2022/07/19 09:49:05;;;;;;;3.58;2.33;;;;;;;;;;10457240;28;20041;-87
2022/07/19 09:54:07;;;;;;;2.38;1.90;;;;;;;;;;10452783;28;20080;-79
2022/07/19 09:59:08;;;;;;;2.83;1.90;;;;;;;;;;10432998;28;20153;-80
2022/07/19 10:04:10;;;;;;;2.33;1.73;;;;;;;;;;10395613;28;20476;-80
2022/07/19 10:09:12;;;;;;;2.45;1.98;;;;;;;;;;10411477;28;20076;-79
2022/07/19 10:14:12;;;;;;;4.15;2.30;;;;;;;;;;10416346;28;20061;-78
2022/07/19 10:19:13;;;;;;;3.50;2.25;;;;;;;;;;10411916;28;20551;-79
2022/07/19 10:24:13;;;;;;;2.40;1.80;;;;;;;;;;10411352;28;20100;-80
2022/07/19 10:29:13;;;;;;;;;;;;;;;;;;10414679;28;20091;-78
2022/07/19 10:34:21;;;;;;;3.10;2.10;;;;;;;;;;10426945;28;19995;-78
2022/07/19 10:39:31;;;;;;;2.83;1.90;;;;;;;;;;10418413;28;20049;-77
2022/07/19 10:44:31;;;;;;;2.85;1.88;;;;;;;;;;10418956;28;20048;-78
2022/07/19 10:49:32;;;;;;;;;;;;;;;;;;10411163;28;20045;-79
2022/07/19 10:54:33;;;;;;;4.03;1.98;;;;;;;;;;10402846;28;20402;-78
2022/07/19 10:59:35;;;;;;;2.50;2.08;;;;;;;;;;10412999;28;20049;-79
2022/07/19 11:04:36;;;;;;;3.28;2.13;;;;;;;;;;10424656;28;20125;-79
2022/07/19 11:09:50;;;;;;;3.55;2.60;;;;;;;;;;10406755;28;20045;-80
2022/07/19 11:14:51;;;;;;;4.20;2.28;;;;;;;;;;10423292;28;20254;-81
2022/07/19 11:19:59;;;;;;;2.80;2.13;;;;;;;;;;10420307;28;20100;-78
2022/07/19 11:24:59;;;;;;;3.85;2.15;;;;;;;;;;10417595;28;20345;-83
2022/07/19 11:30:02;;;;;;;2.67;2.20;;;;;;;;;;10424696;28;20076;-80
2022/07/19 11:35:04;;;;;;;2.40;2.20;;;;;;;;;;10418100;28;20115;-77
2022/07/19 11:40:05;;;;;;;3.75;2.08;;;;;;;;;;10424728;28;20053;-79
2022/07/19 11:45:22;;;;;;;4.32;2.03;;;;;;;;;;10413069;28;20049;-79
2022/07/19 11:50:24;;;;;;;3.17;2.15;;;;;;;;;;10406370;28;20065;-78
2022/07/19 11:55:26;;;;;;;3.33;2.47;;;;;;;;;;10415680;28;20069;-80
2022/07/19 12:00:26;;;;;;;3.50;2.30;;;;;;;;;;10414755;28;20323;-79
2022/07/19 12:05:27;;;;;;;3.70;2.30;;;;;;;;;;10413857;28;20088;-78
2022/07/19 12:10:42;;;;;;;2.58;2.28;;;;;;;;;;10430652;28;20057;-77
2022/07/19 12:15:49;;;;;;;4.75;2.42;;;;;;;;;;10436842;28;20058;-77
2022/07/19 12:21:16;;;;;;;3.38;2.13;;;;;;;;;;10435192;28;20437;-77
2022/07/19 12:26:16;;;;;;;3.63;2.20;;;;;;;;;;10408235;28;20049;-78
2022/07/19 12:31:17;;;;;;;3.20;2.17;;;;;;;;;;10415324;28;20034;-79
2022/07/19 12:36:36;;;;;;;3.93;2.40;;;;;;;;;;10415476;28;20057;-78
2022/07/19 12:41:36;;;;;;;3.15;2.13;;;;;;;;;;10420321;28;20123;-81
2022/07/19 12:46:36;;;;;;;2.60;2.00;;;;;;;;;;10431651;28;20103;-79
2022/07/19 12:51:42;;;;;;;3.60;2.20;;;;;;;;;;10415048;28;20322;-76
2022/07/19 12:56:42;;;;;;;5.63;2.80;;;;;;;;;;10422651;28;20053;-78
2022/07/19 13:01:43;;;;;;;4.03;2.40;;;;;;;;;;10433157;28;20048;-76
2022/07/19 13:06:43;;;;;;;4.03;2.40;;;;;;;;;;10399172;28;20077;-77
2022/07/19 13:11:43;;;;;;;2.73;2.40;;;;;;;;;;10423805;28;20290;-76
2022/07/19 13:16:44;;;;;;;5.90;2.20;;;;;;;;;;10459351;28;20110;-73
2022/07/19 13:21:44;;;;;;;3.87;2.40;;;;;;;;;;10435802;28;20380;-76
2022/07/19 13:26:44;;;;;;;3.72;2.47;;;;;;;;;;10414325;28;20045;-78
2022/07/19 13:31:45;;;;;;;3.30;2.37;;;;;;;;;;10412281;28;20056;-77
2022/07/19 13:36:45;;;;;;;5.50;2.50;;;;;;;;;;10443708;28;20103;-77
2022/07/19 13:41:46;;;;;;;2.80;2.30;;;;;;;;;;10416160;28;20045;-76
2022/07/19 13:46:46;;;;;;;2.90;2.60;;;;;;;;;;10410548;28;20125;-79
2022/07/19 13:51:47;;;;;;;5.45;2.70;;;;;;;;;;10424543;28;20055;-76
2022/07/19 13:56:48;;;;;;;3.63;2.90;;;;;;;;;;10414864;28;20053;-79
2022/07/19 14:01:49;;;;;;;3.53;2.63;;;;;;;;;;10440681;28;20045;-77
2022/07/19 14:06:51;;;;;;;3.30;2.97;;;;;;;;;;10438114;28;20472;-76
2022/07/19 14:11:51;;;;;;;2.97;2.67;;;;;;;;;;10409299;28;20057;-78
2022/07/19 14:16:52;;;;;;;3.22;2.70;;;;;;;;;;10412589;28;20053;-76
2022/07/19 14:21:52;;;;;;;5.40;2.97;;;;;;;;;;10436197;28;20033;-79
2022/07/19 14:26:52;;;;;;;5.93;2.90;;;;;;;;;;10408761;28;20650;-79
2022/07/19 14:31:54;;;;;;;5.50;3.50;;;;;;;;;;10417429;28;20075;-77
2022/07/19 14:36:55;;;;;;;3.90;2.88;;;;;;;;;;10410842;28;20053;-78
2022/07/19 14:41:55;;;;;;;5.30;2.57;;;;;;;;;;10409660;28;20052;-78
2022/07/19 14:46:56;;;;;;;2.88;2.58;;;;;;;;;;10408549;28;20049;-78
2022/07/19 14:51:56;;;;;;;3.55;2.40;;;;;;;;;;10409957;28;20049;-77
2022/07/19 14:56:56;;;;;;;4.30;2.57;;;;;;;;;;10405753;28;20119;-77
2022/07/19 15:01:57;;;;;;;3.67;2.77;;;;;;;;;;10408558;28;20051;-76
2022/07/19 15:06:57;;;;;;;4.13;2.47;;;;;;;;;;10408206;28;20414;-78
2022/07/19 15:11:59;;;;;;;3.23;2.70;;;;;;;;;;10435721;28;20481;-78
2022/07/19 15:17:01;;;;;;;7.70;3.60;;;;;;;;;;10430434;28;20428;-77
2022/07/19 15:22:03;;;;;;;4.90;2.72;;;;;;;;;;10418620;28;20077;-77
2022/07/19 15:27:04;;;;;;;4.40;2.58;;;;;;;;;;10427353;28;20088;-78
2022/07/19 15:32:11;;;;;;;4.28;2.58;;;;;;;;;;10434739;28;20127;-80
2022/07/19 15:37:11;;;;;;;4.82;3.42;;;;;;;;;;10425172;28;20057;-78
2022/07/19 15:42:12;;;;;;;5.57;2.63;;;;;;;;;;10447441;28;20049;-78
2022/07/19 15:47:12;;;;;;;4.18;2.72;;;;;;;;;;10429565;28;20754;-79
2022/07/19 15:52:16;;;;;;;5.35;3.38;;;;;;;;;;10426294;28;20519;-78
2022/07/19 15:57:16;;;;;;;4.83;2.80;;;;;;;;;;10403953;28;20110;-77
2022/07/19 16:02:16;;;;;;;4.37;2.70;;;;;;;;;;10417499;28;20049;-80
2022/07/19 16:07:17;;;;;;;4.27;2.50;;;;;;;;;;10423987;28;20053;-79
2022/07/19 16:12:18;;;;;;;4.30;2.70;;;;;;;;;;10429946;28;20276;-78
2022/07/19 16:17:19;;;;;;;4.90;2.37;;;;;;;;;;10437162;28;20069;-77
2022/07/19 16:22:20;;;;;;;5.53;2.75;;;;;;;;;;10417730;28;20084;-78
2022/07/19 16:27:20;;;;;;;3.63;2.80;;;;;;;;;;10419070;28;20045;-77
2022/07/19 16:32:21;;;;;;;3.80;2.70;;;;;;;;;;10423208;28;20041;-78
2022/07/19 16:37:21;;;;;;;4.20;3.00;;;;;;;;;;10416298;28;20382;-78
2022/07/19 16:42:22;;;;;;;3.80;2.40;;;;;;;;;;10434500;28;20087;-78
2022/07/19 16:47:23;;;;;;;4.23;2.60;;;;;;;;;;10421144;28;20052;-78
2022/07/19 16:52:24;;;;;;;4.10;3.35;;;;;;;;;;10425281;28;20339;-80
2022/07/19 16:57:24;;;;;;;4.40;2.93;;;;;;;;;;10424754;28;20568;-78
2022/07/19 17:02:25;;;;;;;3.28;2.80;;;;;;;;;;10421298;28;20311;-79
2022/07/19 17:07:25;;;;;;;4.30;2.88;;;;;;;;;;10448424;28;20234;-78
2022/07/19 17:12:26;;;;;;;4.07;2.95;;;;;;;;;;10452694;28;20064;-74
2022/07/19 17:17:26;;;;;;;14.13;12.50;;;;;;;;;;10421883;28;20103;-79
2022/07/19 17:22:27;;;;;;;5.30;3.43;;;;;;;;;;10394951;28;20055;-78
2022/07/19 17:27:27;;;;;;;4.57;3.40;;;;;;;;;;10418638;28;20917;-78
2022/07/19 17:32:29;;;;;;;4.22;3.03;;;;;;;;;;10428663;28;20276;-77
2022/07/19 17:37:29;;;;;;;4.07;2.93;;;;;;;;;;10424002;28;20132;-77
2022/07/19 17:42:30;;;;;;;4.70;3.47;;;;;;;;;;10408524;28;20283;-78
2022/07/19 17:47:30;;;;;;;4.40;2.70;;;;;;;;;;10395886;28;20280;-78
2022/07/19 17:52:31;;;;;;;4.90;3.70;;;;;;;;;;10414996;28;20365;-78
2022/07/19 17:57:31;;;;;;;;;;;;;;;;;;10427201;28;20280;-76
2022/07/19 18:02:31;;;;;;;5.93;3.38;;;;;;;;;;10432712;28;19920;-76
2022/07/19 18:07:32;;;;;;;;;;;;;;;;;;10418523;28;20053;-76
2022/07/19 18:12:32;;;;;;;6.05;3.30;;;;;;;;;;10409675;28;19921;-79
2022/07/19 18:17:34;;;;;;;;;;;;;;;;;;10415818;28;20139;-79
2022/07/19 18:22:34;;;;;;;6.75;3.88;;;;;;;;;;10427884;28;19940;-79
2022/07/19 18:27:34;;;;;;;;;;;;;;;;;;10418871;28;20048;-78
2022/07/19 18:32:35;;;;;;;4.75;3.80;;;;;;;;;;10421634;28;19952;-78
2022/07/19 18:37:36;;;;;;;4.35;3.25;;;;;;;;;;10432114;28;20403;-79
2022/07/19 18:42:37;;;;;;;3.63;3.20;;;;;;;;;;10422688;28;20048;-78
2022/07/19 18:47:37;;;;;;;6.30;3.80;;;;;;;;;;10404099;28;20552;-79
2022/07/19 18:52:40;;;;;;;37.85;33.72;;;;;;;;;;10426052;28;20355;-78
2022/07/19 18:57:41;;;;;;;9.63;8.73;;;;;;;;;;10412852;28;20064;-79
2022/07/19 19:02:45;;;;;;;6.60;5.78;;;;;;;;;;10418122;28;20045;-81
2022/07/19 19:07:46;;;;;;;5.22;4.15;;;;;;;;;;10403597;28;20045;-77
2022/07/19 19:12:46;;;;;;;8.37;7.20;;;;;;;;;;10417045;28;20060;-80
2022/07/19 19:17:48;;;;;;;5.43;4.85;;;;;;;;;;10406479;28;20467;-80
2022/07/19 19:22:50;;;;;;;5.40;4.90;;;;;;;;;;10400899;28;20069;-79
2022/07/19 19:27:53;;;;;;;4.50;3.90;;;;;;;;;;10418314;28;20095;-80
2022/07/19 19:32:53;;;;;;;6.43;4.28;;;;;;;;;;10428249;28;20095;-77
2022/07/19 19:37:55;;;;;;;5.47;4.70;;;;;;;;;;10433305;28;20076;-82
2022/07/19 19:42:56;;;;;;;7.07;4.47;;;;;;;;;;10431392;28;20049;-81
2022/07/19 19:47:56;;;;;;;4.97;4.47;;;;;;;;;;10442645;28;20477;-82
2022/07/19 19:52:57;;;;;;;5.10;4.60;;;;;;;;;;10433136;28;20054;-79
2022/07/19 19:57:57;;;;;;;5.73;4.77;;;;;;;;;;10433158;28;20080;-79
2022/07/19 20:02:59;;;;;;;4.80;4.30;;;;;;;;;;10435443;28;20064;-80
2022/07/19 20:07:59;;;;;;;5.70;5.10;;;;;;;;;;10457074;28;20045;-80
2022/07/19 20:12:59;;;;;;;6.33;5.07;;;;;;;;;;10433750;28;20045;-80
2022/07/19 20:18:00;;;;;;;5.90;5.30;;;;;;;;;;10430335;28;20136;-79
2022/07/19 20:23:04;;;;;;;7.03;4.93;;;;;;;;;;10430685;28;20053;-79
2022/07/19 20:28:04;;;;;;;5.30;4.80;;;;;;;;;;10450457;28;20045;-79
2022/07/19 20:33:05;;;;;;;7.73;4.97;;;;;;;;;;10452557;28;20095;-79
2022/07/19 20:38:08;;;;;;;6.25;4.57;;;;;;;;;;10430662;28;20045;-78
2022/07/19 20:43:09;;;;;;;4.77;4.37;;;;;;;;;;10413105;28;20053;-79
2022/07/19 20:48:15;;;;;;;6.03;4.77;;;;;;;;;;10428101;28;20053;-80
2022/07/19 20:53:18;;;;;;;5.63;4.97;;;;;;;;;;10434043;28;20053;-79
2022/07/19 20:58:19;;;;;;;4.80;4.40;;;;;;;;;;10421943;28;20179;-80
2022/07/19 21:03:21;;;;;;;6.33;4.63;;;;;;;;;;10418147;28;20152;-82
2022/07/19 21:08:23;;;;;;;5.03;4.47;;;;;;;;;;10425167;28;20100;-79
2022/07/19 21:13:23;;;;;;;5.50;4.50;;;;;;;;;;10414270;28;20286;-79
2022/07/19 21:18:26;;;;;;;5.15;4.40;;;;;;;;;;10444395;28;20037;-78
2022/07/19 21:23:32;;;;;;;5.38;4.75;;;;;;;;;;10432695;28;20128;-79
2022/07/19 21:28:33;;;;;;;6.00;5.03;;;;;;;;;;10430217;28;20115;-79
2022/07/19 21:33:34;;;;;;;6.07;4.38;;;;;;;;;;10421801;28;20049;-79
2022/07/19 21:38:37;;;;;;;5.22;4.60;;;;;;;;;;10439060;28;20049;-79
2022/07/19 21:43:38;;;;;;;5.53;4.00;;;;;;;;;;10420444;28;20161;-78
2022/07/19 21:48:40;;;;;;;4.63;4.13;;;;;;;;;;10410851;28;20041;-79
2022/07/19 21:53:41;;;;;;;5.93;4.68;;;;;;;;;;10405146;28;20563;-79
2022/07/19 21:58:42;;;;;;;5.20;4.67;;;;;;;;;;10398378;28;20498;-78
2022/07/19 22:03:42;;;;;;;6.53;5.13;;;;;;;;;;10433170;28;20048;-79
2022/07/19 22:08:43;;;;;;;6.93;4.97;;;;;;;;;;10433242;28;20412;-79
2022/07/19 22:13:47;;;;;;;7.70;5.40;;;;;;;;;;10414491;28;20098;-81
2022/07/19 22:18:48;;;;;;;6.53;5.43;;;;;;;;;;10394843;28;20319;-79
2022/07/19 22:23:49;;;;;;;6.78;5.72;;;;;;;;;;10403397;28;20400;-79
2022/07/19 22:28:50;;;;;;;5.43;4.90;;;;;;;;;;10419893;28;20045;-83
2022/07/19 22:33:53;;;;;;;5.67;5.07;;;;;;;;;;10421584;28;20763;-78
2022/07/19 22:38:53;;;;;;;8.05;5.95;;;;;;;;;;10413752;28;20056;-77
2022/07/19 22:43:54;;;;;;;8.57;5.37;;;;;;;;;;10416919;28;20042;-79
2022/07/19 22:48:54;;;;;;;7.47;5.97;;;;;;;;;;10428696;28;21017;-79
2022/07/19 22:53:54;;;;;;;6.93;5.57;;;;;;;;;;10411505;28;20053;-78
2022/07/19 22:58:55;;;;;;;6.23;5.50;;;;;;;;;;10414230;28;20291;-77
2022/07/19 23:03:55;;;;;;;6.55;5.50;;;;;;;;;;10412368;28;20041;-78
2022/07/19 23:08:56;;;;;;;6.47;5.13;;;;;;;;;;10409753;28;20066;-78
2022/07/19 23:13:56;;;;;;;6.87;5.40;;;;;;;;;;10404186;28;20767;-76
2022/07/19 23:18:56;;;;;;;5.83;5.23;;;;;;;;;;10420598;28;20410;-78
2022/07/19 23:23:57;;;;;;;8.05;5.30;;;;;;;;;;10429524;28;20050;-78
2022/07/19 23:28:58;;;;;;;5.93;5.10;;;;;;;;;;10414237;28;20049;-78
2022/07/19 23:33:58;;;;;;;6.60;5.57;;;;;;;;;;10399235;28;20144;-76
2022/07/19 23:38:58;;;;;;;6.13;5.53;;;;;;;;;;10414433;28;20305;-77
2022/07/19 23:43:59;;;;;;;5.57;5.07;;;;;;;;;;10415767;28;20073;-78
2022/07/19 23:49:01;;;;;;;6.93;5.68;;;;;;;;;;10416984;28;20049;-78
2022/07/19 23:54:02;;;;;;;5.77;5.20;;;;;;;;;;10412476;28;20092;-78
2022/07/19 23:59:03;;;;;;;7.73;5.73;;;;;;;;;;10422512;28;20120;-78
